createdAt,value
2019-03-04T00:01:33.162Z,0.00
2019-03-04T00:02:33.221Z,0.00
2019-03-04T00:04:26.717Z,0.00
2019-03-04T00:05:26.764Z,0.00
2019-03-04T00:07:19.750Z,0.00
2019-03-04T00:08:19.808Z,0.00
2019-03-04T00:10:12.792Z,0.00
2019-03-04T00:11:12.849Z,0.00
2019-03-04T00:13:05.833Z,0.00
2019-03-04T00:14:05.881Z,0.00
2019-03-04T00:15:58.864Z,0.00
2019-03-04T00:16:58.924Z,0.00
2019-03-04T00:18:51.912Z,0.00
2019-03-04T00:19:51.958Z,0.00
2019-03-04T00:21:44.937Z,0.00
2019-03-04T00:22:45.004Z,0.00
2019-03-04T00:24:37.999Z,0.00
2019-03-04T00:25:38.054Z,0.00
2019-03-04T00:27:31.035Z,0.00
2019-03-04T00:28:31.098Z,0.00
2019-03-04T00:30:24.085Z,0.00
2019-03-04T00:31:24.134Z,0.00
2019-03-04T00:33:17.131Z,0.00
2019-03-04T00:34:17.173Z,0.00
2019-03-04T00:36:10.154Z,0.00
2019-03-04T00:37:10.216Z,0.00
2019-03-04T00:39:03.223Z,0.00
2019-03-04T00:40:03.273Z,0.00
2019-03-04T00:41:56.256Z,0.00
2019-03-04T00:42:56.316Z,0.00
2019-03-04T00:44:49.301Z,0.00
2019-03-04T00:45:49.354Z,0.00
2019-03-04T00:47:42.326Z,0.00
2019-03-04T00:48:42.396Z,0.00
2019-03-04T00:50:35.375Z,0.00
2019-03-04T00:51:35.424Z,0.00
2019-03-04T00:53:28.418Z,0.00
2019-03-04T00:54:28.466Z,0.00
2019-03-04T00:56:21.449Z,0.00
2019-03-04T00:57:21.505Z,0.00
2019-03-04T00:59:14.492Z,0.00
2019-03-04T01:00:14.547Z,0.00
2019-03-04T01:02:07.532Z,0.00
2019-03-04T01:03:07.591Z,0.00
2019-03-04T01:05:01.099Z,0.00
2019-03-04T01:06:03.327Z,0.00
2019-03-04T01:07:54.138Z,0.00
2019-03-04T01:08:54.185Z,0.00
2019-03-04T01:10:47.185Z,0.00
2019-03-04T01:11:47.235Z,0.00
2019-03-04T01:13:40.236Z,0.00
2019-03-04T01:14:40.290Z,0.00
2019-03-04T01:16:33.266Z,0.00
2019-03-04T01:17:33.324Z,0.00
2019-03-04T01:19:26.315Z,0.00
2019-03-04T01:20:26.362Z,0.00
2019-03-04T01:22:19.359Z,0.00
2019-03-04T01:23:19.403Z,0.00
2019-03-04T01:25:12.391Z,0.00
2019-03-04T01:26:12.435Z,0.00
2019-03-04T01:28:05.436Z,0.00
2019-03-04T01:29:05.497Z,0.00
2019-03-04T01:30:58.488Z,0.00
2019-03-04T01:31:58.540Z,0.00
2019-03-04T01:33:51.524Z,0.00
2019-03-04T01:34:51.576Z,0.00
2019-03-04T01:36:44.547Z,0.00
2019-03-04T01:37:44.613Z,0.00
2019-03-04T01:39:37.603Z,0.00
2019-03-04T01:40:37.651Z,0.00
2019-03-04T01:42:30.636Z,0.00
2019-03-04T01:43:30.698Z,0.00
2019-03-04T01:45:23.687Z,0.00
2019-03-04T01:46:23.739Z,0.00
2019-03-04T01:48:16.723Z,0.00
2019-03-04T01:49:16.784Z,0.00
2019-03-04T01:51:09.784Z,0.00
2019-03-04T01:52:09.822Z,0.00
2019-03-04T01:54:02.809Z,0.00
2019-03-04T01:55:02.862Z,0.00
2019-03-04T01:56:55.840Z,0.00
2019-03-04T01:57:55.898Z,0.00
2019-03-04T01:59:48.890Z,0.00
2019-03-04T02:00:48.944Z,0.00
2019-03-04T02:02:41.923Z,0.00
2019-03-04T02:03:41.983Z,0.00
2019-03-04T02:05:34.973Z,0.00
2019-03-04T02:06:35.021Z,0.00
2019-03-04T02:08:28.004Z,0.00
2019-03-04T02:09:28.067Z,0.00
2019-03-04T02:11:21.049Z,0.00
2019-03-04T02:12:21.096Z,0.00
2019-03-04T02:14:14.103Z,0.00
2019-03-04T02:15:14.156Z,0.00
2019-03-04T02:17:07.136Z,0.00
2019-03-04T02:18:07.192Z,0.00
2019-03-04T02:20:00.272Z,0.00
2019-03-04T02:21:00.234Z,0.00
2019-03-04T02:22:53.235Z,0.00
2019-03-04T02:23:53.272Z,0.00
2019-03-04T02:25:46.261Z,0.00
2019-03-04T02:26:46.325Z,0.00
2019-03-04T02:28:39.321Z,0.00
2019-03-04T02:29:39.376Z,0.00
2019-03-04T02:31:32.368Z,0.00
2019-03-04T02:32:32.415Z,0.00
2019-03-04T02:34:25.406Z,0.00
2019-03-04T02:35:25.451Z,0.00
2019-03-04T02:37:18.447Z,0.00
2019-03-04T02:38:18.497Z,0.00
2019-03-04T02:40:11.495Z,0.00
2019-03-04T02:41:11.557Z,0.00
2019-03-04T02:43:04.546Z,0.00
2019-03-04T02:44:04.586Z,0.00
2019-03-04T02:45:57.576Z,0.00
2019-03-04T02:46:57.623Z,0.00
2019-03-04T02:48:50.610Z,0.00
2019-03-04T02:49:50.664Z,0.00
2019-03-04T02:51:43.641Z,0.00
2019-03-04T02:52:43.709Z,0.00
2019-03-04T02:54:36.687Z,0.00
2019-03-04T02:55:36.737Z,0.00
2019-03-04T02:57:29.721Z,0.00
2019-03-04T02:58:29.777Z,0.00
2019-03-04T03:00:22.772Z,0.00
2019-03-04T03:01:22.810Z,0.00
2019-03-04T03:03:15.795Z,0.00
2019-03-04T03:04:15.851Z,0.00
2019-03-04T03:06:08.841Z,0.00
2019-03-04T03:07:08.891Z,0.00
2019-03-04T03:09:01.876Z,0.00
2019-03-04T03:10:01.931Z,0.00
2019-03-04T03:11:54.919Z,0.00
2019-03-04T03:12:54.977Z,0.00
2019-03-04T03:14:47.969Z,0.00
2019-03-04T03:15:48.023Z,0.00
2019-03-04T03:17:40.996Z,0.00
2019-03-04T03:18:41.056Z,0.00
2019-03-04T03:20:34.043Z,0.00
2019-03-04T03:21:34.096Z,0.00
2019-03-04T03:23:27.082Z,0.00
2019-03-04T03:24:27.133Z,0.00
2019-03-04T03:26:20.122Z,0.00
2019-03-04T03:27:20.183Z,0.00
2019-03-04T03:29:13.153Z,0.00
2019-03-04T03:30:13.229Z,0.00
2019-03-04T03:32:06.201Z,0.00
2019-03-04T03:33:06.252Z,0.00
2019-03-04T03:34:59.264Z,0.00
2019-03-04T03:35:59.301Z,0.00
2019-03-04T03:37:52.270Z,0.00
2019-03-04T03:38:52.331Z,0.00
2019-03-04T03:40:45.319Z,0.00
2019-03-04T03:41:45.366Z,0.00
2019-03-04T03:43:38.354Z,0.00
2019-03-04T03:44:38.409Z,0.00
2019-03-04T03:46:31.392Z,0.00
2019-03-04T03:47:31.445Z,0.00
2019-03-04T03:49:24.424Z,0.00
2019-03-04T03:50:24.483Z,0.00
2019-03-04T03:52:17.477Z,0.00
2019-03-04T03:53:17.526Z,0.00
2019-03-04T03:55:10.783Z,0.00
2019-03-04T03:56:10.564Z,0.00
2019-03-04T03:58:03.542Z,0.00
2019-03-04T03:59:03.599Z,0.00
2019-03-04T04:00:56.591Z,0.00
2019-03-04T04:01:56.640Z,0.00
2019-03-04T04:03:49.643Z,0.00
2019-03-04T04:04:49.698Z,0.00
2019-03-04T04:06:42.675Z,0.00
2019-03-04T04:07:42.732Z,0.00
2019-03-04T04:09:35.713Z,0.00
2019-03-04T04:10:35.768Z,0.00
2019-03-04T04:12:28.752Z,0.00
2019-03-04T04:13:28.805Z,0.00
2019-03-04T04:15:21.816Z,0.00
2019-03-04T04:16:21.849Z,0.00
2019-03-04T04:18:14.831Z,0.00
2019-03-04T04:19:14.894Z,0.00
2019-03-04T04:21:07.877Z,0.00
2019-03-04T04:22:07.929Z,0.00
2019-03-04T04:24:00.924Z,0.00
2019-03-04T04:25:00.968Z,0.00
2019-03-04T04:26:53.951Z,0.00
2019-03-04T04:27:54.003Z,0.00
2019-03-04T04:29:46.981Z,0.00
2019-03-04T04:30:47.039Z,0.00
2019-03-04T04:32:40.535Z,0.00
2019-03-04T04:33:40.584Z,0.00
2019-03-04T04:35:33.588Z,0.00
2019-03-04T04:36:33.643Z,0.00
2019-03-04T04:38:26.623Z,0.00
2019-03-04T04:39:26.683Z,0.00
2019-03-04T04:41:19.672Z,0.00
2019-03-04T04:42:19.726Z,0.00
2019-03-04T04:44:12.811Z,0.00
2019-03-04T04:45:12.764Z,0.00
2019-03-04T04:47:05.753Z,0.00
2019-03-04T04:48:05.800Z,0.00
2019-03-04T04:49:58.804Z,0.00
2019-03-04T04:50:58.859Z,0.00
2019-03-04T04:52:51.845Z,0.00
2019-03-04T04:53:51.897Z,0.00
2019-03-04T04:55:44.900Z,0.00
2019-03-04T04:56:44.933Z,0.00
2019-03-04T04:58:37.936Z,0.00
2019-03-04T04:59:37.978Z,0.00
2019-03-04T05:01:30.966Z,0.00
2019-03-04T05:02:31.025Z,0.00
2019-03-04T05:04:24.020Z,0.00
2019-03-04T05:05:24.075Z,0.00
2019-03-04T05:07:17.069Z,0.00
2019-03-04T05:08:17.117Z,0.00
2019-03-04T05:10:10.102Z,0.00
2019-03-04T05:11:10.162Z,0.00
2019-03-04T05:13:03.160Z,0.00
2019-03-04T05:14:03.200Z,0.00
2019-03-04T05:15:56.206Z,0.00
2019-03-04T05:16:56.263Z,0.00
2019-03-04T05:18:49.236Z,0.00
2019-03-04T05:19:49.293Z,0.00
2019-03-04T05:21:42.284Z,0.00
2019-03-04T05:22:42.332Z,0.00
2019-03-04T05:24:35.310Z,0.00
2019-03-04T05:25:35.369Z,0.00
2019-03-04T05:27:28.359Z,0.00
2019-03-04T05:28:28.409Z,0.00
2019-03-04T05:30:21.388Z,0.00
2019-03-04T05:31:21.445Z,0.00
2019-03-04T05:33:14.431Z,0.00
2019-03-04T05:34:14.484Z,0.00
2019-03-04T05:36:07.506Z,0.00
2019-03-04T05:37:07.545Z,0.00
2019-03-04T05:39:00.520Z,0.00
2019-03-04T05:40:00.581Z,0.00
2019-03-04T05:41:53.569Z,0.00
2019-03-04T05:42:53.623Z,0.00
2019-03-04T05:44:46.618Z,0.00
2019-03-04T05:45:46.690Z,0.00
2019-03-04T05:47:39.655Z,0.00
2019-03-04T05:48:39.708Z,0.00
2019-03-04T05:50:32.686Z,4.00
2019-03-04T05:51:32.745Z,4.00
2019-03-04T05:53:25.731Z,4.00
2019-03-04T05:54:25.784Z,8.00
2019-03-04T05:56:18.774Z,8.00
2019-03-04T05:57:18.827Z,8.00
2019-03-04T05:59:19.324Z,4.00
2019-03-04T06:00:11.872Z,8.00
2019-03-04T06:02:04.859Z,12.00
2019-03-04T06:03:04.907Z,16.00
2019-03-04T06:04:57.890Z,16.00
2019-03-04T06:05:57.948Z,16.00
2019-03-04T06:07:50.939Z,12.00
2019-03-04T06:08:50.988Z,12.00
2019-03-04T06:10:43.965Z,24.00
2019-03-04T06:11:44.024Z,36.00
2019-03-04T06:13:37.027Z,40.00
2019-03-04T06:14:37.064Z,28.00
2019-03-04T06:16:30.068Z,20.00
2019-03-04T06:17:30.102Z,12.00
2019-03-04T06:19:23.092Z,28.00
2019-03-04T06:20:23.154Z,32.00
2019-03-04T06:22:16.141Z,48.00
2019-03-04T06:23:16.189Z,64.00
2019-03-04T06:25:09.179Z,72.00
2019-03-04T06:26:09.229Z,76.00
2019-03-04T06:28:02.210Z,80.00
2019-03-04T06:29:02.269Z,84.00
2019-03-04T06:30:55.249Z,120.00
2019-03-04T06:31:55.300Z,144.00
2019-03-04T06:33:48.284Z,128.00
2019-03-04T06:34:48.340Z,124.00
2019-03-04T06:36:41.430Z,136.00
2019-03-04T06:37:41.380Z,124.00
2019-03-04T06:39:34.358Z,120.00
2019-03-04T06:40:34.414Z,112.00
2019-03-04T06:42:27.401Z,120.00
2019-03-04T06:43:27.452Z,116.00
2019-03-04T06:45:20.439Z,104.00
2019-03-04T06:46:20.492Z,100.00
2019-03-04T06:48:13.485Z,80.00
2019-03-04T06:49:13.541Z,112.00
2019-03-04T06:51:06.517Z,140.00
2019-03-04T06:52:06.574Z,132.00
2019-03-04T06:53:59.565Z,144.00
2019-03-04T06:54:59.612Z,184.00
2019-03-04T06:56:54.461Z,260.00
2019-03-04T06:57:52.655Z,252.00
2019-03-04T06:59:45.641Z,420.00
2019-03-04T07:00:45.695Z,468.00
2019-03-04T07:02:38.677Z,416.00
2019-03-04T07:03:38.729Z,408.00
2019-03-04T07:05:31.713Z,440.00
2019-03-04T07:06:31.770Z,512.00
2019-03-04T07:08:24.761Z,612.00
2019-03-04T07:09:24.807Z,552.00
2019-03-04T07:11:17.792Z,628.00
2019-03-04T07:12:17.847Z,632.00
2019-03-04T07:14:10.855Z,552.00
2019-03-04T07:15:10.882Z,440.00
2019-03-04T07:17:03.882Z,244.00
2019-03-04T07:18:03.917Z,260.00
2019-03-04T07:19:56.897Z,400.00
2019-03-04T07:20:56.955Z,604.00
2019-03-04T07:22:49.945Z,764.00
2019-03-04T07:23:50.005Z,816.00
2019-03-04T07:25:42.973Z,656.00
2019-03-04T07:26:43.022Z,1308.00
2019-03-04T07:28:36.009Z,2952.00
2019-03-04T07:29:36.059Z,2788.00
2019-03-04T07:31:29.040Z,2376.00
2019-03-04T07:32:29.096Z,2400.00
2019-03-04T07:34:22.080Z,2300.00
2019-03-04T07:35:22.132Z,2004.00
2019-03-04T07:37:15.124Z,2208.00
2019-03-04T07:38:15.178Z,3060.00
2019-03-04T07:40:08.174Z,5224.00
2019-03-04T07:41:08.220Z,5012.00
2019-03-04T07:43:01.211Z,6596.00
2019-03-04T07:44:01.261Z,4024.00
2019-03-04T07:45:54.247Z,3352.00
2019-03-04T07:46:54.300Z,6140.00
2019-03-04T07:48:47.280Z,3132.00
2019-03-04T07:49:47.350Z,3028.00
2019-03-04T07:51:40.317Z,2712.00
2019-03-04T07:52:40.377Z,4108.00
2019-03-04T07:54:33.359Z,5136.00
2019-03-04T07:55:33.414Z,6576.00
2019-03-04T07:57:26.417Z,3952.00
2019-03-04T07:58:26.459Z,4240.00
2019-03-04T08:00:20.947Z,5616.00
2019-03-04T08:01:20.993Z,8284.00
2019-03-04T08:03:13.993Z,10848.00
2019-03-04T08:04:14.044Z,16512.00
2019-03-04T08:06:07.065Z,15840.00
2019-03-04T08:07:07.120Z,6584.00
2019-03-04T08:09:00.108Z,2544.00
2019-03-04T08:10:00.312Z,1940.00
2019-03-04T08:11:53.148Z,1532.00
2019-03-04T08:12:53.209Z,1472.00
2019-03-04T08:14:46.215Z,1196.00
2019-03-04T08:15:46.247Z,964.00
2019-03-04T08:17:39.343Z,672.00
2019-03-04T08:18:39.285Z,544.00
2019-03-04T08:20:32.271Z,824.00
2019-03-04T08:21:32.326Z,892.00
2019-03-04T08:23:25.321Z,800.00
2019-03-04T08:24:25.371Z,1332.00
2019-03-04T08:26:18.349Z,1668.00
2019-03-04T08:27:18.408Z,1276.00
2019-03-04T08:29:11.392Z,1224.00
2019-03-04T08:30:11.449Z,1860.00
2019-03-04T08:32:04.423Z,1920.00
2019-03-04T08:33:04.482Z,3992.00
2019-03-04T08:34:57.484Z,3728.00
2019-03-04T08:35:57.538Z,2524.00
2019-03-04T08:37:50.543Z,3064.00
2019-03-04T08:38:50.571Z,4336.00
2019-03-04T08:40:43.555Z,4916.00
2019-03-04T08:41:43.615Z,8660.00
2019-03-04T08:43:36.612Z,5696.00
2019-03-04T08:44:36.655Z,5284.00
2019-03-04T08:46:29.630Z,4984.00
2019-03-04T08:47:29.697Z,5452.00
2019-03-04T08:49:22.677Z,6696.00
2019-03-04T08:50:22.726Z,7344.00
2019-03-04T08:52:15.703Z,8964.00
2019-03-04T08:53:15.763Z,14300.00
2019-03-04T08:55:08.746Z,5916.00
2019-03-04T08:56:08.798Z,6716.00
2019-03-04T08:58:01.799Z,6668.00
2019-03-04T08:59:01.839Z,9480.00
2019-03-04T09:00:55.343Z,12568.00
2019-03-04T09:01:55.391Z,11200.00
2019-03-04T09:03:48.401Z,8380.00
2019-03-04T09:04:48.431Z,8320.00
2019-03-04T09:06:41.414Z,7444.00
2019-03-04T09:07:41.471Z,8112.00
2019-03-04T09:09:34.469Z,7892.00
2019-03-04T09:10:34.519Z,4588.00
2019-03-04T09:12:27.499Z,4008.00
2019-03-04T09:13:27.563Z,6196.00
2019-03-04T09:15:20.548Z,5052.00
2019-03-04T09:16:20.598Z,5464.00
2019-03-04T09:18:13.692Z,6120.00
2019-03-04T09:19:13.646Z,7700.00
2019-03-04T09:21:06.633Z,7376.00
2019-03-04T09:22:06.692Z,5404.00
2019-03-04T09:23:59.682Z,4588.00
2019-03-04T09:24:59.733Z,3144.00
2019-03-04T09:26:52.716Z,4464.00
2019-03-04T09:27:52.772Z,3040.00
2019-03-04T09:29:46.759Z,3356.00
2019-03-04T09:30:45.858Z,3416.00
2019-03-04T09:32:38.849Z,3672.00
2019-03-04T09:33:38.902Z,2904.00
2019-03-04T09:35:32.781Z,5192.00
2019-03-04T09:36:31.943Z,4176.00
2019-03-04T09:38:24.960Z,5840.00
2019-03-04T09:39:24.982Z,7016.00
2019-03-04T09:41:17.963Z,10580.00
2019-03-04T09:42:18.024Z,8388.00
2019-03-04T09:44:11.012Z,9596.00
2019-03-04T09:45:11.064Z,8452.00
2019-03-04T09:47:04.057Z,7636.00
2019-03-04T09:48:04.100Z,7512.00
2019-03-04T09:49:57.086Z,5376.00
2019-03-04T09:50:57.130Z,7128.00
2019-03-04T09:52:50.129Z,6880.00
2019-03-04T09:53:50.186Z,4780.00
2019-03-04T09:55:43.203Z,3928.00
2019-03-04T09:56:43.253Z,5180.00
2019-03-04T09:58:36.232Z,3352.00
2019-03-04T09:59:36.292Z,3116.00
2019-03-04T10:01:29.300Z,4184.00
2019-03-04T10:02:29.327Z,4180.00
2019-03-04T10:04:22.310Z,4944.00
2019-03-04T10:05:22.363Z,5060.00
2019-03-04T10:07:15.342Z,5912.00
2019-03-04T10:08:15.401Z,6172.00
2019-03-04T10:10:08.391Z,5732.00
2019-03-04T10:11:08.439Z,6552.00
2019-03-04T10:13:01.418Z,6868.00
2019-03-04T10:14:01.476Z,7080.00
2019-03-04T10:15:54.469Z,6944.00
2019-03-04T10:16:54.512Z,6756.00
2019-03-04T10:18:47.491Z,7668.00
2019-03-04T10:19:47.549Z,7852.00
2019-03-04T10:21:40.538Z,9716.00
2019-03-04T10:22:40.591Z,9072.00
2019-03-04T10:24:33.578Z,10424.00
2019-03-04T10:25:33.627Z,9884.00
2019-03-04T10:27:26.611Z,10220.00
2019-03-04T10:28:26.669Z,9060.00
2019-03-04T10:30:19.660Z,6632.00
2019-03-04T10:31:19.705Z,6960.00
2019-03-04T10:33:12.692Z,9636.00
2019-03-04T10:34:12.749Z,7896.00
2019-03-04T10:36:05.734Z,8556.00
2019-03-04T10:37:05.782Z,10600.00
2019-03-04T10:38:58.767Z,11072.00
2019-03-04T10:39:58.819Z,8496.00
2019-03-04T10:41:51.816Z,7064.00
2019-03-04T10:42:51.867Z,6180.00
2019-03-04T10:44:44.860Z,11452.00
2019-03-04T10:45:44.903Z,12236.00
2019-03-04T10:47:37.889Z,10396.00
2019-03-04T10:48:37.949Z,8128.00
2019-03-04T10:50:30.939Z,8776.00
2019-03-04T10:51:30.991Z,8144.00
2019-03-04T10:53:23.975Z,6168.00
2019-03-04T10:54:24.028Z,3936.00
2019-03-04T10:56:17.013Z,3592.00
2019-03-04T10:57:17.069Z,3672.00
2019-03-04T10:59:10.054Z,3724.00
2019-03-04T11:00:10.107Z,2272.00
2019-03-04T11:02:03.094Z,1992.00
2019-03-04T11:03:03.146Z,2264.00
2019-03-04T11:04:56.130Z,1092.00
2019-03-04T11:05:56.181Z,1216.00
2019-03-04T11:07:49.166Z,1936.00
2019-03-04T11:08:49.225Z,2264.00
2019-03-04T11:10:42.215Z,2480.00
2019-03-04T11:11:42.263Z,2468.00
2019-03-04T11:13:35.241Z,2108.00
2019-03-04T11:14:35.293Z,1940.00
2019-03-04T11:16:28.289Z,2112.00
2019-03-04T11:17:28.337Z,2292.00
2019-03-04T11:19:21.333Z,2244.00
2019-03-04T11:20:21.390Z,2224.00
2019-03-04T11:22:14.378Z,2140.00
2019-03-04T11:23:15.220Z,1776.00
2019-03-04T11:25:07.409Z,1796.00
2019-03-04T11:26:07.459Z,2044.00
2019-03-04T11:28:00.452Z,2852.00
2019-03-04T11:29:00.492Z,3724.00
2019-03-04T11:30:53.475Z,4564.00
2019-03-04T11:31:53.523Z,4788.00
2019-03-04T11:33:46.502Z,5668.00
2019-03-04T11:34:46.559Z,6168.00
2019-03-04T11:36:39.542Z,7796.00
2019-03-04T11:37:39.593Z,7968.00
2019-03-04T11:39:32.574Z,7908.00
2019-03-04T11:40:32.633Z,7400.00
2019-03-04T11:42:25.619Z,6132.00
2019-03-04T11:43:25.673Z,7504.00
2019-03-04T11:45:18.661Z,6460.00
2019-03-04T11:46:18.715Z,8040.00
2019-03-04T11:48:11.695Z,5816.00
2019-03-04T11:49:11.751Z,7180.00
2019-03-04T11:51:04.734Z,9008.00
2019-03-04T11:52:04.783Z,8148.00
2019-03-04T11:53:57.768Z,8092.00
2019-03-04T11:54:57.817Z,8440.00
2019-03-04T11:56:50.806Z,9252.00
2019-03-04T11:57:50.853Z,9664.00
2019-03-04T11:59:43.842Z,10572.00
2019-03-04T12:00:43.893Z,10396.00
2019-03-04T12:02:39.144Z,10528.00
2019-03-04T12:03:36.937Z,10852.00
2019-03-04T12:05:29.926Z,11304.00
2019-03-04T12:06:29.981Z,11296.00
2019-03-04T12:08:22.959Z,10000.00
2019-03-04T12:09:23.017Z,9668.00
2019-03-04T12:11:16.011Z,10116.00
2019-03-04T12:12:16.055Z,8152.00
2019-03-04T12:14:09.029Z,7784.00
2019-03-04T12:15:09.088Z,8392.00
2019-03-04T12:17:02.082Z,8720.00
2019-03-04T12:18:02.135Z,9676.00
2019-03-04T12:19:55.110Z,11256.00
2019-03-04T12:20:55.167Z,11028.00
2019-03-04T12:22:48.206Z,8488.00
2019-03-04T12:23:48.208Z,8748.00
2019-03-04T12:25:41.196Z,6628.00
2019-03-04T12:26:41.247Z,8716.00
2019-03-04T12:28:34.233Z,9416.00
2019-03-04T12:29:34.287Z,8956.00
2019-03-04T12:31:28.461Z,7572.00
2019-03-04T12:32:27.327Z,6952.00
2019-03-04T12:34:24.596Z,7252.00
2019-03-04T12:35:20.365Z,7836.00
2019-03-04T12:37:13.351Z,8404.00
2019-03-04T12:38:13.404Z,8612.00
2019-03-04T12:40:06.382Z,8800.00
2019-03-04T12:41:06.439Z,8812.00
2019-03-04T12:42:59.425Z,8900.00
2019-03-04T12:43:59.475Z,8920.00
2019-03-04T12:45:52.461Z,9060.00
2019-03-04T12:46:52.511Z,9008.00
2019-03-04T12:48:45.494Z,9704.00
2019-03-04T12:49:45.572Z,9736.00
2019-03-04T12:51:38.544Z,9320.00
2019-03-04T12:52:38.593Z,9748.00
2019-03-04T12:54:31.577Z,10200.00
2019-03-04T12:55:31.635Z,10652.00
2019-03-04T12:57:24.621Z,9692.00
2019-03-04T12:58:24.670Z,9396.00
2019-03-04T13:00:17.650Z,9276.00
2019-03-04T13:01:17.708Z,10088.00
2019-03-04T13:03:10.699Z,9088.00
2019-03-04T13:04:10.752Z,10128.00
2019-03-04T13:06:03.748Z,9772.00
2019-03-04T13:07:03.789Z,10264.00
2019-03-04T13:08:56.793Z,9540.00
2019-03-04T13:09:56.835Z,9060.00
2019-03-04T13:11:49.874Z,8856.00
2019-03-04T13:12:49.876Z,7884.00
2019-03-04T13:14:42.848Z,8468.00
2019-03-04T13:15:42.905Z,7220.00
2019-03-04T13:17:35.907Z,8240.00
2019-03-04T13:18:35.957Z,8168.00
2019-03-04T13:20:28.940Z,7872.00
2019-03-04T13:21:28.997Z,5928.00
2019-03-04T13:23:21.988Z,5424.00
2019-03-04T13:24:22.042Z,6932.00
2019-03-04T13:26:15.025Z,5112.00
2019-03-04T13:27:23.534Z,7768.00
2019-03-04T13:29:08.052Z,5256.00
2019-03-04T13:30:08.111Z,5380.00
2019-03-04T13:32:01.106Z,5836.00
2019-03-04T13:33:01.150Z,4716.00
2019-03-04T13:34:54.125Z,5852.00
2019-03-04T13:35:54.194Z,6044.00
2019-03-04T13:37:47.172Z,6272.00
2019-03-04T13:38:47.221Z,6724.00
2019-03-04T13:40:40.199Z,5944.00
2019-03-04T13:41:40.256Z,6516.00
2019-03-04T13:43:33.248Z,5224.00
2019-03-04T13:44:33.295Z,4812.00
2019-03-04T13:46:26.290Z,6260.00
2019-03-04T13:47:26.357Z,5008.00
2019-03-04T13:49:19.320Z,2016.00
2019-03-04T13:50:19.377Z,2296.00
2019-03-04T13:52:12.368Z,6564.00
2019-03-04T13:53:12.418Z,5856.00
2019-03-04T13:55:05.398Z,4068.00
2019-03-04T13:56:05.455Z,4308.00
2019-03-04T13:57:58.445Z,6812.00
2019-03-04T13:58:58.491Z,6528.00
2019-03-04T14:00:52.988Z,6808.00
2019-03-04T14:01:53.034Z,5292.00
2019-03-04T14:03:46.027Z,4400.00
2019-03-04T14:04:46.076Z,4116.00
2019-03-04T14:06:39.083Z,4476.00
2019-03-04T14:07:39.113Z,6388.00
2019-03-04T14:09:32.095Z,6372.00
2019-03-04T14:10:32.149Z,7852.00
2019-03-04T14:12:25.132Z,5680.00
2019-03-04T14:13:25.193Z,6104.00
2019-03-04T14:15:18.169Z,5372.00
2019-03-04T14:16:18.218Z,5672.00
2019-03-04T14:18:11.218Z,7104.00
2019-03-04T14:19:11.266Z,6248.00
2019-03-04T14:21:04.251Z,6772.00
2019-03-04T14:22:04.303Z,6396.00
2019-03-04T14:23:57.288Z,3832.00
2019-03-04T14:24:57.339Z,3532.00
2019-03-04T14:26:50.329Z,5996.00
2019-03-04T14:27:50.378Z,4672.00
2019-03-04T14:29:43.359Z,5604.00
2019-03-04T14:30:43.423Z,5328.00
2019-03-04T14:32:36.406Z,4252.00
2019-03-04T14:33:36.456Z,3716.00
2019-03-04T14:35:29.444Z,4732.00
2019-03-04T14:36:29.496Z,4952.00
2019-03-04T14:38:22.481Z,5036.00
2019-03-04T14:39:22.531Z,5096.00
2019-03-04T14:41:15.509Z,4680.00
2019-03-04T14:42:15.566Z,5552.00
2019-03-04T14:44:08.557Z,5996.00
2019-03-04T14:45:08.603Z,5324.00
2019-03-04T14:47:01.596Z,5408.00
2019-03-04T14:48:01.638Z,4584.00
2019-03-04T14:49:54.621Z,4284.00
2019-03-04T14:50:54.689Z,3680.00
2019-03-04T14:52:47.666Z,2944.00
2019-03-04T14:53:47.711Z,2092.00
2019-03-04T14:55:40.710Z,1892.00
2019-03-04T14:56:40.749Z,1880.00
2019-03-04T14:58:33.745Z,2016.00
2019-03-04T14:59:33.789Z,2920.00
2019-03-04T15:01:27.269Z,3176.00
2019-03-04T15:02:27.330Z,3088.00
2019-03-04T15:04:20.317Z,3392.00
2019-03-04T15:05:20.363Z,3484.00
2019-03-04T15:07:13.362Z,3988.00
2019-03-04T15:08:13.401Z,3940.00
2019-03-04T15:10:06.377Z,4292.00
2019-03-04T15:11:06.444Z,5264.00
2019-03-04T15:12:59.438Z,4040.00
2019-03-04T15:13:59.487Z,3864.00
2019-03-04T15:16:01.038Z,4000.00
2019-03-04T15:16:52.526Z,3640.00
2019-03-04T15:18:45.513Z,2936.00
2019-03-04T15:19:45.562Z,2880.00
2019-03-04T15:21:38.550Z,3320.00
2019-03-04T15:22:38.598Z,2836.00
2019-03-04T15:24:31.589Z,2484.00
2019-03-04T15:25:31.636Z,2648.00
2019-03-04T15:27:24.624Z,2668.00
2019-03-04T15:28:24.670Z,2636.00
2019-03-04T15:30:17.649Z,2428.00
2019-03-04T15:31:17.704Z,2464.00
2019-03-04T15:33:17.484Z,2440.00
2019-03-04T15:34:10.739Z,2380.00
2019-03-04T15:36:03.715Z,2268.00
2019-03-04T15:37:03.771Z,2276.00
2019-03-04T15:38:56.754Z,2072.00
2019-03-04T15:39:56.806Z,2040.00
2019-03-04T15:41:50.356Z,1948.00
2019-03-04T15:42:49.852Z,1908.00
2019-03-04T15:44:42.842Z,1812.00
2019-03-04T15:45:42.894Z,1864.00
2019-03-04T15:47:36.720Z,2108.00
2019-03-04T15:48:35.928Z,2500.00
2019-03-04T15:50:28.906Z,2784.00
2019-03-04T15:51:28.971Z,2608.00
2019-03-04T15:53:21.943Z,2104.00
2019-03-04T15:54:21.995Z,2016.00
2019-03-04T15:56:14.985Z,2080.00
2019-03-04T15:57:15.059Z,1992.00
2019-03-04T15:59:08.034Z,1792.00
2019-03-04T16:00:08.088Z,1836.00
2019-03-04T16:02:01.063Z,1912.00
2019-03-04T16:03:01.354Z,1736.00
2019-03-04T16:04:54.102Z,1680.00
2019-03-04T16:05:54.153Z,1472.00
2019-03-04T16:07:47.157Z,1296.00
2019-03-04T16:08:47.190Z,1304.00
2019-03-04T16:10:40.694Z,1196.00
2019-03-04T16:11:40.280Z,1196.00
2019-03-04T16:13:33.213Z,1232.00
2019-03-04T16:14:33.261Z,1220.00
2019-03-04T16:16:26.250Z,1456.00
2019-03-04T16:17:26.303Z,1520.00
2019-03-04T16:19:19.289Z,1376.00
2019-03-04T16:20:19.338Z,1288.00
2019-03-04T16:22:12.354Z,1248.00
2019-03-04T16:23:12.374Z,1144.00
2019-03-04T16:25:05.371Z,992.00
2019-03-04T16:26:05.406Z,928.00
2019-03-04T16:27:58.391Z,972.00
2019-03-04T16:28:58.440Z,1000.00
2019-03-04T16:30:51.420Z,992.00
2019-03-04T16:31:51.475Z,968.00
2019-03-04T16:33:44.465Z,1024.00
2019-03-04T16:34:44.513Z,1048.00
2019-03-04T16:36:37.518Z,980.00
2019-03-04T16:37:37.540Z,916.00
2019-03-04T16:39:30.526Z,832.00
2019-03-04T16:40:30.588Z,756.00
2019-03-04T16:42:23.566Z,740.00
2019-03-04T16:43:23.615Z,744.00
2019-03-04T16:45:16.603Z,740.00
2019-03-04T16:46:16.906Z,676.00
2019-03-04T16:48:09.627Z,556.00
2019-03-04T16:49:09.676Z,496.00
2019-03-04T16:51:02.667Z,464.00
2019-03-04T16:52:02.812Z,460.00
2019-03-04T16:53:55.706Z,428.00
2019-03-04T16:54:57.307Z,392.00
2019-03-04T16:56:48.735Z,348.00
2019-03-04T16:57:48.783Z,328.00
2019-03-04T16:59:41.790Z,296.00
2019-03-04T17:00:41.820Z,284.00
2019-03-04T17:02:37.793Z,260.00
2019-03-04T17:03:37.852Z,244.00
2019-03-04T17:05:30.835Z,224.00
2019-03-04T17:06:30.886Z,216.00
2019-03-04T17:08:23.880Z,196.00
2019-03-04T17:09:23.931Z,180.00
2019-03-04T17:11:16.924Z,144.00
2019-03-04T17:12:16.978Z,132.00
2019-03-04T17:14:09.956Z,108.00
2019-03-04T17:15:10.022Z,100.00
2019-03-04T17:17:03.001Z,84.00
2019-03-04T17:18:03.039Z,72.00
2019-03-04T17:19:56.037Z,60.00
2019-03-04T17:20:56.072Z,52.00
2019-03-04T17:22:49.047Z,40.00
2019-03-04T17:23:49.316Z,36.00
2019-03-04T17:25:42.099Z,28.00
2019-03-04T17:26:42.135Z,24.00
2019-03-04T17:28:35.120Z,16.00
2019-03-04T17:29:35.165Z,16.00
2019-03-04T17:31:28.146Z,12.00
2019-03-04T17:32:28.206Z,8.00
2019-03-04T17:34:21.190Z,8.00
2019-03-04T17:35:21.244Z,4.00
2019-03-04T17:37:14.216Z,4.00
2019-03-04T17:38:14.272Z,4.00
2019-03-04T17:40:07.271Z,4.00
2019-03-04T17:41:07.322Z,4.00
2019-03-04T17:43:00.296Z,0.00
2019-03-04T17:44:00.353Z,0.00
2019-03-04T17:45:53.347Z,0.00
2019-03-04T17:46:53.391Z,0.00
2019-03-04T17:48:46.382Z,0.00
2019-03-04T17:49:46.426Z,0.00
2019-03-04T17:51:39.415Z,0.00
2019-03-04T17:52:39.494Z,0.00
2019-03-04T17:54:32.457Z,0.00
2019-03-04T17:55:32.506Z,0.00
2019-03-04T17:57:25.482Z,0.00
2019-03-04T17:58:25.538Z,0.00
2019-03-04T18:00:18.524Z,0.00
2019-03-04T18:01:18.572Z,0.00
2019-03-04T18:03:11.546Z,0.00
2019-03-04T18:04:11.603Z,0.00
2019-03-04T18:06:04.591Z,0.00
2019-03-04T18:07:04.639Z,0.00
2019-03-04T18:08:57.622Z,0.00